Time;durP1;ratioP1;P1;durP2;ratioP2;P2;SDS_P1;SDS_P2;PMS_P1;PMS_P2;Temp;Humidity;BMP_temperature;BMP_pressure;BME280_temperature;BME280_humidity;BME280_pressure;Samples;Min_cycle;Max_cycle;Signal;HPM_P1;HPM_P2
2023/11/07 00:01:30;;;;;;;1999.90;999.90;;;10.40;99.90;;;;;;5074626;28;20208;-69
2023/11/07 00:03:56;;;;;;;1999.90;999.90;;;10.30;99.90;;;;;;5074192;28;20882;-68
2023/11/07 00:06:22;;;;;;;1999.90;999.90;;;10.30;99.90;;;;;;5074279;28;20190;-69
2023/11/07 00:08:47;;;;;;;1999.90;999.90;;;10.30;99.90;;;;;;5074191;28;20412;-69
2023/11/07 00:11:13;;;;;;;1999.90;999.90;;;10.30;99.90;;;;;;5073958;28;20179;-69
2023/11/07 00:13:40;;;;;;;1999.90;999.90;;;10.40;99.90;;;;;;5073885;28;20564;-68
2023/11/07 00:16:07;;;;;;;1999.90;999.90;;;10.30;99.90;;;;;;5073849;28;20204;-69
2023/11/07 00:18:34;;;;;;;1999.90;999.90;;;10.30;99.90;;;;;;5073989;28;20470;-70
2023/11/07 00:20:59;;;;;;;1999.90;999.90;;;10.40;99.90;;;;;;5073689;28;20449;-69
2023/11/07 00:23:25;;;;;;;1999.90;999.90;;;10.30;99.90;;;;;;5073515;28;20480;-69
2023/11/07 00:25:54;;;;;;;1999.90;999.90;;;10.20;99.90;;;;;;5073571;28;20197;-68
2023/11/07 00:28:20;;;;;;;1999.90;999.90;;;10.20;99.90;;;;;;5073593;28;20637;-69
2023/11/07 00:30:46;;;;;;;1999.90;999.90;;;10.20;99.90;;;;;;5073733;28;20473;-69
2023/11/07 00:33:11;;;;;;;1999.90;999.90;;;10.30;99.90;;;;;;5073190;28;20938;-69
2023/11/07 00:35:38;;;;;;;1999.90;999.90;;;10.20;99.90;;;;;;5073423;28;20439;-68
2023/11/07 00:38:04;;;;;;;1999.90;999.90;;;10.30;99.90;;;;;;5073180;28;20239;-69
2023/11/07 00:40:30;;;;;;;1999.90;999.90;;;10.30;99.90;;;;;;5073202;28;20460;-69
2023/11/07 00:42:56;;;;;;;1999.90;999.90;;;10.10;99.90;;;;;;5073260;28;20396;-69
2023/11/07 00:45:21;;;;;;;1999.90;999.90;;;10.20;99.90;;;;;;5073404;28;20429;-68
2023/11/07 00:47:47;;;;;;;1999.90;999.90;;;10.20;99.90;;;;;;5073220;28;20253;-69
2023/11/07 00:50:13;;;;;;;1999.90;999.90;;;10.00;99.90;;;;;;5073123;28;20177;-69
2023/11/07 00:52:38;;;;;;;1999.90;999.90;;;10.30;99.90;;;;;;5072928;28;20177;-69
2023/11/07 00:55:05;;;;;;;1999.90;999.90;;;9.80;99.90;;;;;;5072978;28;21021;-69
2023/11/07 00:57:31;;;;;;;1999.90;999.90;;;9.80;99.90;;;;;;5072267;28;20230;-68
2023/11/07 00:59:57;;;;;;;1999.90;999.90;;;9.70;99.90;;;;;;5072857;28;20848;-69
2023/11/07 01:02:23;;;;;;;1999.90;999.90;;;9.70;99.90;;;;;;5072879;28;20170;-69
2023/11/07 01:04:49;;;;;;;1999.90;999.90;;;9.50;99.90;;;;;;5072840;28;20933;-68
2023/11/07 01:07:14;;;;;;;1999.90;999.90;;;9.30;99.90;;;;;;5073049;28;20200;-69
2023/11/07 01:09:40;;;;;;;1999.90;999.90;;;9.20;99.90;;;;;;5073102;28;20250;-70
2023/11/07 01:12:06;;;;;;;1999.90;999.90;;;9.10;99.90;;;;;;5072973;28;20191;-68
2023/11/07 01:14:32;;;;;;;1999.90;999.90;;;9.00;99.90;;;;;;5073086;28;20167;-68
2023/11/07 01:16:58;;;;;;;1999.90;999.90;;;8.90;99.90;;;;;;5073163;28;20423;-68
2023/11/07 01:19:23;;;;;;;1999.90;999.90;;;8.80;99.90;;;;;;5072580;28;20485;-68
2023/11/07 01:21:49;;;;;;;1999.90;999.90;;;8.80;99.90;;;;;;5072096;28;20282;-69
2023/11/07 01:24:15;;;;;;;1999.90;999.90;;;9.00;99.90;;;;;;5072402;28;20647;-69
2023/11/07 01:26:40;;;;;;;1999.90;999.90;;;8.90;99.90;;;;;;5072594;28;20190;-71
2023/11/07 01:29:06;;;;;;;1999.90;999.90;;;9.10;99.90;;;;;;5072846;28;20163;-69
2023/11/07 01:31:32;;;;;;;1999.90;999.90;;;9.20;99.90;;;;;;5072704;28;20183;-68
2023/11/07 01:33:59;;;;;;;1999.90;999.90;;;9.40;99.90;;;;;;5072347;28;20438;-68
2023/11/07 01:36:24;;;;;;;1999.90;999.90;;;9.60;99.90;;;;;;5072349;28;20430;-70
2023/11/07 01:38:50;;;;;;;1999.90;999.90;;;9.60;99.90;;;;;;5072384;28;20421;-69
2023/11/07 01:41:16;;;;;;;1999.90;999.90;;;9.60;99.90;;;;;;5072348;28;20199;-69
2023/11/07 01:43:41;;;;;;;1999.90;999.90;;;9.60;99.90;;;;;;5072277;28;20161;-69
2023/11/07 01:46:07;;;;;;;1999.90;999.90;;;9.80;99.90;;;;;;5072354;28;20600;-69
2023/11/07 01:48:34;;;;;;;1999.90;999.90;;;9.80;99.90;;;;;;5072405;28;20170;-69
2023/11/07 01:51:01;;;;;;;1999.90;999.90;;;9.70;99.90;;;;;;5072366;28;20788;-69
2023/11/07 01:53:28;;;;;;;1999.90;999.90;;;9.80;99.90;;;;;;5080182;28;20750;-70
2023/11/07 01:55:55;;;;;;;1999.90;999.90;;;9.80;99.90;;;;;;5079113;28;20494;-70
2023/11/07 01:58:21;;;;;;;1999.90;999.90;;;9.80;99.90;;;;;;5080013;28;20451;-70
2023/11/07 02:00:53;;;;;;;1999.90;999.90;;;9.80;99.90;;;;;;5079553;28;20458;-69
2023/11/07 02:03:21;;;;;;;1999.90;999.90;;;9.90;99.90;;;;;;5075634;28;20428;-69
2023/11/07 02:05:47;;;;;;;1999.90;999.90;;;10.00;99.90;;;;;;5078452;28;20521;-69
2023/11/07 02:08:12;;;;;;;1999.90;999.90;;;10.10;99.90;;;;;;5077518;28;20412;-70
2023/11/07 02:10:38;;;;;;;1999.90;999.90;;;10.10;99.90;;;;;;5076385;28;20258;-70
2023/11/07 02:13:04;;;;;;;1999.90;999.90;;;10.20;99.90;;;;;;5076722;28;20238;-69
2023/11/07 02:15:31;;;;;;;1999.90;999.90;;;10.10;99.90;;;;;;5078241;28;20226;-69
2023/11/07 02:17:57;;;;;;;1999.90;999.90;;;10.20;99.90;;;;;;5079150;28;20241;-69
2023/11/07 02:20:23;;;;;;;1999.90;999.90;;;10.10;99.90;;;;;;5077896;28;20519;-70
2023/11/07 02:23:22;;;;;;;1999.90;999.90;;;10.30;99.90;;;;;;5076557;28;20404;-69
2023/11/07 02:25:51;;;;;;;1999.90;999.90;;;10.10;99.90;;;;;;5059695;28;20436;-70
2023/11/07 02:28:17;;;;;;;1999.90;999.90;;;10.10;99.90;;;;;;5078700;28;20419;-70
2023/11/07 02:30:44;;;;;;;1999.90;999.90;;;10.00;99.90;;;;;;5059157;28;20989;-69
2023/11/07 02:33:09;;;;;;;1999.90;999.90;;;9.90;99.90;;;;;;5079001;28;20205;-68
2023/11/07 02:35:37;;;;;;;1999.90;999.90;;;10.00;99.90;;;;;;5081569;28;20423;-70
2023/11/07 02:38:02;;;;;;;1999.90;999.90;;;9.90;99.90;;;;;;5082768;28;20177;-69
2023/11/07 02:40:28;;;;;;;1999.90;999.90;;;9.80;99.90;;;;;;5081011;28;20862;-70
2023/11/07 02:42:54;;;;;;;1999.90;999.90;;;9.90;99.90;;;;;;5082621;28;20171;-69
2023/11/07 02:45:19;;;;;;;1999.90;999.90;;;9.90;99.90;;;;;;5083325;28;20186;-69
2023/11/07 02:47:45;;;;;;;1999.90;999.90;;;9.80;99.90;;;;;;5084306;28;20265;-70
2023/11/07 02:50:11;;;;;;;1999.90;999.90;;;9.90;99.90;;;;;;5084135;28;20165;-70
2023/11/07 02:52:37;;;;;;;1999.90;999.90;;;9.90;99.90;;;;;;5083019;28;20639;-69
2023/11/07 02:55:03;;;;;;;1999.90;999.90;;;9.90;99.90;;;;;;5083023;28;20170;-69
2023/11/07 02:57:29;;;;;;;1999.90;999.90;;;9.90;99.90;;;;;;5082876;28;20427;-69
2023/11/07 02:59:54;;;;;;;1999.90;999.90;;;9.90;99.90;;;;;;5083379;28;20413;-69
2023/11/07 03:02:20;;;;;;;1999.90;999.90;;;9.90;99.90;;;;;;5083702;28;20554;-67
2023/11/07 03:04:46;;;;;;;1999.90;999.90;;;9.90;99.90;;;;;;5083755;28;20196;-68
2023/11/07 03:07:12;;;;;;;1999.90;999.90;;;9.80;99.90;;;;;;5082369;28;20435;-70
2023/11/07 03:09:37;;;;;;;1999.90;999.90;;;9.80;99.90;;;;;;5082743;28;20184;-69
2023/11/07 03:12:03;;;;;;;1999.90;999.90;;;9.80;99.90;;;;;;5083396;28;20807;-69
2023/11/07 03:14:29;;;;;;;1999.90;999.90;;;9.90;99.90;;;;;;5082701;28;20194;-69
2023/11/07 03:16:55;;;;;;;1999.90;999.90;;;9.80;99.90;;;;;;5083129;28;20494;-71
2023/11/07 03:19:21;;;;;;;1999.90;999.90;;;9.60;99.90;;;;;;5082274;28;20201;-71
2023/11/07 03:21:46;;;;;;;1999.90;999.90;;;9.60;99.90;;;;;;5084405;28;20454;-68
2023/11/07 03:24:12;;;;;;;1999.90;999.90;;;9.70;99.90;;;;;;5083010;28;20160;-70
2023/11/07 03:26:38;;;;;;;1999.90;999.90;;;9.60;99.90;;;;;;5082532;28;20190;-69
2023/11/07 03:29:03;;;;;;;1999.90;999.90;;;9.70;99.90;;;;;;5083453;28;20175;-69
2023/11/07 03:31:30;;;;;;;1999.90;999.90;;;9.50;99.90;;;;;;5083677;28;20178;-69
2023/11/07 03:33:56;;;;;;;1999.90;999.90;;;9.50;99.90;;;;;;5083876;28;20177;-70
2023/11/07 03:36:21;;;;;;;1999.90;999.90;;;9.40;99.90;;;;;;5084498;28;20438;-69
2023/11/07 03:38:47;;;;;;;1999.90;999.90;;;9.40;99.90;;;;;;5083036;28;20178;-69
2023/11/07 03:41:13;;;;;;;1999.90;999.90;;;9.40;99.90;;;;;;5083482;28;20198;-70
2023/11/07 03:43:38;;;;;;;1999.90;999.90;;;9.50;99.90;;;;;;5083166;28;20250;-70
2023/11/07 03:46:05;;;;;;;1999.90;999.90;;;9.30;99.90;;;;;;5081630;28;20196;-69
2023/11/07 03:48:31;;;;;;;1999.90;999.90;;;9.30;99.90;;;;;;5080300;28;20177;-69
2023/11/07 03:50:57;;;;;;;1999.90;999.90;;;9.40;99.90;;;;;;5064656;28;20476;-68
2023/11/07 03:53:22;;;;;;;1999.90;999.90;;;9.40;99.90;;;;;;5080477;28;20274;-70
2023/11/07 03:55:48;;;;;;;1999.90;999.90;;;9.40;99.90;;;;;;5083647;28;20203;-69
2023/11/07 03:58:15;;;;;;;1999.90;999.90;;;9.50;99.90;;;;;;5082102;28;20338;-69
2023/11/07 04:00:41;;;;;;;1999.90;999.90;;;9.40;99.90;;;;;;5083950;28;20463;-69
2023/11/07 04:03:07;;;;;;;1999.90;999.90;;;9.50;99.90;;;;;;5078298;28;20244;-68
2023/11/07 04:05:32;;;;;;;1999.90;999.90;;;9.40;99.90;;;;;;5074507;28;20750;-68
2023/11/07 04:07:59;;;;;;;1999.90;999.90;;;9.40;99.90;;;;;;5074470;28;20403;-68
2023/11/07 04:10:25;;;;;;;1999.90;999.90;;;9.30;99.90;;;;;;5074566;28;20565;-68
2023/11/07 04:12:51;;;;;;;1999.90;999.90;;;9.40;99.90;;;;;;5074001;28;20465;-68
2023/11/07 04:15:17;;;;;;;1999.90;999.90;;;9.20;99.90;;;;;;5074236;28;20470;-68
2023/11/07 04:17:43;;;;;;;1999.90;999.90;;;9.40;99.90;;;;;;5074556;28;20406;-69
2023/11/07 04:20:09;;;;;;;1999.90;999.90;;;9.40;99.90;;;;;;5073988;28;20446;-68
2023/11/07 04:22:36;;;;;;;1999.90;999.90;;;9.40;99.90;;;;;;5073820;28;20208;-69
2023/11/07 04:25:03;;;;;;;1999.90;999.90;;;9.40;99.90;;;;;;5073920;28;20425;-69
2023/11/07 04:27:28;;;;;;;1999.90;999.90;;;9.50;99.90;;;;;;5073902;28;20753;-69
2023/11/07 04:29:54;;;;;;;1999.90;999.90;;;9.50;99.90;;;;;;5073798;28;20413;-69
2023/11/07 04:32:19;;;;;;;1999.90;999.90;;;9.60;99.90;;;;;;5077178;28;20627;-68
2023/11/07 04:34:47;;;;;;;1999.90;999.90;;;9.60;99.90;;;;;;5082196;28;20164;-69
2023/11/07 04:37:14;;;;;;;1999.90;999.90;;;9.80;99.90;;;;;;5083012;28;20182;-69
2023/11/07 04:39:39;;;;;;;1999.90;999.90;;;9.80;99.90;;;;;;5083620;28;20406;-69
2023/11/07 04:42:05;;;;;;;1999.90;999.90;;;9.80;99.90;;;;;;5081961;28;20426;-69
2023/11/07 04:44:33;;;;;;;1999.90;999.90;;;9.80;99.90;;;;;;5083871;28;20200;-70
2023/11/07 04:47:00;;;;;;;1999.90;999.90;;;9.90;99.90;;;;;;5083762;28;20428;-69
2023/11/07 04:49:31;;;;;;;1999.90;999.90;;;9.80;99.90;;;;;;5083834;28;21109;-70
2023/11/07 04:51:58;;;;;;;1999.90;999.90;;;9.90;99.90;;;;;;5083509;28;20428;-70
2023/11/07 04:54:27;;;;;;;1999.90;999.90;;;9.90;99.90;;;;;;5084127;28;20426;-69
2023/11/07 04:56:54;;;;;;;1999.90;999.90;;;10.00;99.90;;;;;;5084793;28;20451;-69
2023/11/07 04:59:21;;;;;;;1999.90;999.90;;;10.00;99.90;;;;;;5083590;28;20431;-69
2023/11/07 05:01:48;;;;;;;1999.90;999.90;;;10.00;99.90;;;;;;5076328;28;20502;-69
2023/11/07 05:04:14;;;;;;;1999.90;999.90;;;9.80;99.90;;;;;;5083215;28;20491;-69
2023/11/07 05:06:41;;;;;;;1999.90;999.90;;;10.00;99.90;;;;;;5084858;28;20526;-70
2023/11/07 05:09:08;;;;;;;1999.90;999.90;;;9.70;99.90;;;;;;5085211;28;20422;-68
2023/11/07 05:11:35;;;;;;;1999.90;999.90;;;9.70;99.90;;;;;;5084891;28;20414;-69
2023/11/07 05:14:01;;;;;;;1999.90;999.90;;;9.50;99.90;;;;;;5084607;28;20404;-68
2023/11/07 05:16:27;;;;;;;1999.90;999.90;;;9.50;99.90;;;;;;5083933;28;20517;-69
2023/11/07 05:18:53;;;;;;;1999.90;999.90;;;9.50;99.90;;;;;;5083876;28;20178;-69
2023/11/07 05:21:19;;;;;;;1999.90;999.90;;;9.60;99.90;;;;;;5083572;28;20464;-69
2023/11/07 05:23:44;;;;;;;1999.90;999.90;;;9.40;99.90;;;;;;5082356;28;20230;-70
2023/11/07 05:26:11;;;;;;;1999.90;999.90;;;9.30;99.90;;;;;;5082777;28;20267;-69
2023/11/07 05:28:37;;;;;;;1999.90;999.90;;;9.30;99.90;;;;;;5083510;28;20251;-69
2023/11/07 05:31:03;;;;;;;1999.90;999.90;;;9.30;99.90;;;;;;5083333;28;20425;-70
2023/11/07 05:33:30;;;;;;;1999.90;999.90;;;9.30;99.90;;;;;;5083389;28;20184;-69
2023/11/07 05:35:55;;;;;;;1999.90;999.90;;;9.20;99.90;;;;;;5081798;28;20434;-69
2023/11/07 05:38:22;;;;;;;1999.90;999.90;;;9.40;99.90;;;;;;5082220;28;20745;-69
2023/11/07 05:40:48;;;;;;;1999.90;999.90;;;9.10;99.90;;;;;;5074443;28;20199;-69
2023/11/07 05:43:13;;;;;;;1999.90;999.90;;;9.20;99.90;;;;;;5081796;28;20410;-69
2023/11/07 05:45:39;;;;;;;1999.90;999.90;;;9.10;99.90;;;;;;5081810;28;20438;-68
2023/11/07 05:48:05;;;;;;;1999.90;999.90;;;9.10;99.90;;;;;;5062256;28;20231;-70
2023/11/07 05:50:30;;;;;;;1999.90;999.90;;;9.10;99.90;;;;;;5080394;28;20173;-70
2023/11/07 05:52:56;;;;;;;1999.90;999.90;;;9.10;99.90;;;;;;5079492;28;20174;-70
2023/11/07 05:55:22;;;;;;;1999.90;999.90;;;9.10;99.90;;;;;;5080395;28;20201;-70
2023/11/07 05:57:47;;;;;;;1999.90;999.90;;;9.10;99.90;;;;;;5079724;28;20188;-69
2023/11/07 06:00:14;;;;;;;1999.90;999.90;;;9.10;99.90;;;;;;5079506;28;20198;-69
2023/11/07 06:02:40;;;;;;;1999.90;999.90;;;9.10;99.90;;;;;;5079406;28;20174;-70
2023/11/07 06:05:09;;;;;;;1999.90;999.90;;;9.20;99.90;;;;;;5077918;28;20746;-69
2023/11/07 06:07:34;;;;;;;1999.90;999.90;;;9.20;99.90;;;;;;5072309;28;20764;-69
2023/11/07 06:10:03;;;;;;;1999.90;999.90;;;9.20;99.90;;;;;;5072188;28;20416;-68
2023/11/07 06:12:29;;;;;;;1999.90;999.90;;;9.20;99.90;;;;;;5072084;28;20261;-69
2023/11/07 06:14:55;;;;;;;1999.90;999.90;;;9.20;99.90;;;;;;5072264;28;20505;-68
2023/11/07 06:17:21;;;;;;;1999.90;999.90;;;9.30;99.90;;;;;;5072459;28;20523;-68
2023/11/07 06:19:47;;;;;;;1999.90;999.90;;;9.30;99.90;;;;;;5072262;28;20497;-68
2023/11/07 06:22:16;;;;;;;1999.90;999.90;;;9.30;99.90;;;;;;5071782;28;20287;-68
2023/11/07 06:24:42;;;;;;;1999.90;999.90;;;9.30;99.90;;;;;;5072408;28;20797;-68
2023/11/07 06:27:07;;;;;;;1999.90;999.90;;;9.30;99.90;;;;;;5072347;28;20520;-68
2023/11/07 06:29:34;;;;;;;1999.90;999.90;;;9.20;99.90;;;;;;5072740;28;20412;-68
2023/11/07 06:32:00;;;;;;;1999.90;999.90;;;9.20;99.90;;;;;;5072333;28;20175;-68
2023/11/07 06:34:26;;;;;;;1999.90;999.90;;;9.10;99.90;;;;;;5072189;28;20444;-68
2023/11/07 06:36:52;;;;;;;1999.90;999.90;;;9.10;99.90;;;;;;5072263;28;20425;-69
2023/11/07 06:39:18;;;;;;;1999.90;999.90;;;9.10;99.90;;;;;;5072476;28;20902;-69
2023/11/07 06:41:44;;;;;;;1999.90;999.90;;;9.00;99.90;;;;;;5072302;28;20552;-70
2023/11/07 06:44:11;;;;;;;1999.90;999.90;;;8.90;99.90;;;;;;5072198;28;20491;-70
2023/11/07 06:46:40;;;;;;;1999.90;999.90;;;8.90;99.90;;;;;;5072088;28;20193;-68
2023/11/07 06:49:08;;;;;;;1999.90;999.90;;;8.80;99.90;;;;;;5072179;28;20890;-69
2023/11/07 06:51:34;;;;;;;1999.90;999.90;;;8.80;99.90;;;;;;5072470;28;20410;-68
2023/11/07 06:54:02;;;;;;;1999.90;999.90;;;8.80;99.90;;;;;;5071894;28;20423;-68
2023/11/07 06:56:27;;;;;;;1999.90;999.90;;;8.70;99.90;;;;;;5071952;28;20956;-68
2023/11/07 06:58:53;;;;;;;1999.90;999.90;;;8.60;99.90;;;;;;5071335;28;20431;-68
2023/11/07 07:01:19;;;;;;;1999.90;999.90;;;8.70;99.90;;;;;;5071780;28;20198;-68
2023/11/07 07:03:45;;;;;;;1999.90;999.90;;;8.60;99.90;;;;;;5071726;28;20422;-68
2023/11/07 07:06:11;;;;;;;1999.90;999.90;;;8.60;99.90;;;;;;5072501;28;20557;-69
2023/11/07 07:08:36;;;;;;;1999.90;999.90;;;8.60;99.90;;;;;;5071105;28;20438;-70
2023/11/07 07:11:04;;;;;;;1999.90;999.90;;;8.50;99.90;;;;;;5071937;28;20174;-68
2023/11/07 07:13:30;;;;;;;1999.90;999.90;;;8.60;99.90;;;;;;5072104;28;20178;-68
2023/11/07 07:15:56;;;;;;;1999.90;999.90;;;8.60;99.90;;;;;;5077283;28;20426;-70
2023/11/07 07:18:22;;;;;;;1999.90;999.90;;;8.60;99.90;;;;;;5080320;28;20175;-69
2023/11/07 07:20:50;;;;;;;1999.90;999.90;;;8.50;99.90;;;;;;5081485;28;20525;-69
2023/11/07 07:23:16;;;;;;;1999.90;999.90;;;8.50;99.90;;;;;;5079823;28;20440;-68
2023/11/07 07:25:43;;;;;;;1999.90;999.90;;;8.50;99.90;;;;;;5075061;28;20451;-68
2023/11/07 07:28:09;;;;;;;1999.90;999.90;;;8.60;99.90;;;;;;5075343;28;20155;-69
2023/11/07 07:30:37;;;;;;;1999.90;999.90;;;8.70;99.90;;;;;;5075278;28;20426;-69
2023/11/07 07:33:06;;;;;;;1999.90;999.90;;;8.70;99.90;;;;;;5074878;28;20176;-68
2023/11/07 07:35:32;;;;;;;1999.90;999.90;;;8.90;99.90;;;;;;5074906;28;20432;-68
2023/11/07 07:38:02;;;;;;;1999.90;999.90;;;9.10;99.90;;;;;;5075039;28;20782;-68
2023/11/07 07:40:29;;;;;;;1999.90;999.90;;;9.20;99.90;;;;;;5075160;28;20967;-68
2023/11/07 07:42:58;;;;;;;1999.90;999.90;;;9.30;99.90;;;;;;5074716;28;20761;-70
2023/11/07 07:45:29;;;;;;;1999.90;999.90;;;9.30;99.90;;;;;;5074619;28;20430;-68
2023/11/07 07:47:57;;;;;;;1999.90;999.90;;;9.50;99.90;;;;;;5074547;28;20399;-71
2023/11/07 07:50:22;;;;;;;1999.90;999.90;;;9.60;99.90;;;;;;5074738;28;20428;-69
2023/11/07 07:52:56;;;;;;;1999.90;999.90;;;9.60;99.90;;;;;;5074559;28;20401;-69
2023/11/07 07:55:22;;;;;;;1999.90;999.90;;;9.60;99.90;;;;;;5073861;28;20250;-70
2023/11/07 07:57:47;;;;;;;1999.90;999.90;;;9.70;99.90;;;;;;5074577;28;20426;-69
2023/11/07 08:00:14;;;;;;;1999.90;999.90;;;9.90;99.90;;;;;;5074409;28;20444;-68
2023/11/07 08:02:46;;;;;;;1999.90;999.90;;;9.80;99.90;;;;;;5074407;28;20182;-69
2023/11/07 08:05:16;;;;;;;1999.90;999.90;;;10.00;99.90;;;;;;5074375;28;20400;-69
2023/11/07 08:07:46;;;;;;;1999.90;999.90;;;9.90;99.90;;;;;;5074430;28;20403;-69
2023/11/07 08:10:19;;;;;;;1999.90;999.90;;;9.90;99.90;;;;;;5074224;28;20408;-69
2023/11/07 08:12:50;;;;;;;1999.90;999.90;;;10.00;99.90;;;;;;5074195;28;20927;-69
2023/11/07 08:15:17;;;;;;;1999.90;999.90;;;10.00;99.90;;;;;;5076951;28;20486;-69
2023/11/07 08:17:43;;;;;;;1999.90;999.90;;;9.90;99.90;;;;;;5074248;28;20407;-69
2023/11/07 08:20:15;;;;;;;1999.90;999.90;;;10.00;99.90;;;;;;5074153;28;20827;-69
2023/11/07 08:22:42;;;;;;;1999.90;999.90;;;10.00;99.90;;;;;;5074036;28;20424;-69
2023/11/07 08:25:10;;;;;;;1999.90;999.90;;;10.00;99.90;;;;;;5074212;28;20877;-69
2023/11/07 08:27:37;;;;;;;1999.90;999.90;;;10.00;99.90;;;;;;5074310;28;20916;-70
2023/11/07 08:30:04;;;;;;;1999.90;999.90;;;10.00;99.90;;;;;;5074232;28;20408;-68
2023/11/07 08:32:30;;;;;;;1999.90;999.90;;;10.10;99.90;;;;;;5073826;28;20904;-70
2023/11/07 08:34:57;;;;;;;1999.90;999.90;;;10.20;99.90;;;;;;5080761;28;20409;-70
2023/11/07 08:37:23;;;;;;;1999.90;999.90;;;10.20;99.90;;;;;;5079675;28;20906;-70
2023/11/07 08:39:49;;;;;;;1999.90;999.90;;;10.30;99.90;;;;;;5079022;28;20408;-69
2023/11/07 08:42:14;;;;;;;1999.90;999.90;;;10.40;99.90;;;;;;5079009;28;20193;-69
2023/11/07 08:44:40;;;;;;;1999.90;999.90;;;10.40;99.90;;;;;;5077276;28;20418;-69
2023/11/07 08:47:06;;;;;;;1999.90;999.90;;;10.50;99.90;;;;;;5078461;28;20188;-70
2023/11/07 08:49:32;;;;;;;1999.90;999.90;;;10.50;99.90;;;;;;5078640;28;20167;-70
2023/11/07 08:51:57;;;;;;;1999.90;999.90;;;10.50;99.90;;;;;;5078753;28;20420;-70
2023/11/07 08:54:23;;;;;;;1999.90;999.90;;;10.50;99.90;;;;;;5078869;28;20217;-70
2023/11/07 08:56:49;;;;;;;1999.90;999.90;;;10.70;99.90;;;;;;5078484;28;20691;-69
2023/11/07 08:59:17;;;;;;;1999.90;999.90;;;10.70;99.90;;;;;;5077588;28;20186;-70
2023/11/07 09:01:43;;;;;;;1999.90;999.90;;;10.80;99.90;;;;;;5077689;28;20863;-70
2023/11/07 09:04:09;;;;;;;1999.90;999.90;;;11.00;99.90;;;;;;5076278;28;20427;-70
2023/11/07 09:06:39;;;;;;;1999.90;999.90;;;11.30;99.90;;;;;;5076201;28;20526;-69
2023/11/07 09:09:07;;;;;;;1999.90;999.90;;;11.50;99.90;;;;;;5073199;28;20414;-70
2023/11/07 09:11:33;;;;;;;1999.90;999.90;;;11.60;99.90;;;;;;5071030;28;20922;-70
2023/11/07 09:13:59;;;;;;;1999.90;999.90;;;11.70;99.90;;;;;;5069771;28;20532;-69
2023/11/07 09:16:25;;;;;;;1999.90;999.90;;;11.80;99.90;;;;;;5071777;28;20199;-69
2023/11/07 09:18:51;;;;;;;1999.90;999.90;;;11.90;99.90;;;;;;5068793;28;20178;-70
2023/11/07 09:21:17;;;;;;;1999.90;999.90;;;11.90;99.90;;;;;;5069567;28;20285;-69
2023/11/07 09:23:42;;;;;;;1999.90;999.90;;;11.90;99.90;;;;;;5068060;28;20499;-70
2023/11/07 09:26:09;;;;;;;1999.90;999.90;;;11.90;99.90;;;;;;5067483;28;20530;-69
2023/11/07 09:28:35;;;;;;;1999.90;999.90;;;11.70;99.90;;;;;;5064945;28;20483;-70
2023/11/07 09:31:02;;;;;;;1999.90;999.90;;;11.70;99.90;;;;;;5069700;28;20447;-70
2023/11/07 09:33:27;;;;;;;1999.90;999.90;;;11.80;99.90;;;;;;5070235;28;20179;-68
2023/11/07 09:35:53;;;;;;;1999.90;999.90;;;11.70;99.90;;;;;;5070679;28;21695;-69
2023/11/07 09:38:19;;;;;;;1999.90;999.90;;;11.70;99.90;;;;;;5071001;28;20182;-70
2023/11/07 09:40:45;;;;;;;1999.90;999.90;;;11.70;99.90;;;;;;5070527;28;20305;-70
2023/11/07 09:43:12;;;;;;;1999.90;999.90;;;11.70;99.90;;;;;;5070974;28;20170;-68
2023/11/07 09:45:39;;;;;;;1999.90;999.90;;;11.80;99.90;;;;;;5071388;28;20487;-68
2023/11/07 09:48:09;;;;;;;1999.90;999.90;;;11.90;99.90;;;;;;5071655;28;20483;-68
2023/11/07 09:50:39;;;;;;;1999.90;999.90;;;11.90;99.90;;;;;;5070948;28;20413;-68
2023/11/07 09:53:08;;;;;;;1999.90;999.90;;;11.90;99.90;;;;;;5071514;28;20405;-68
2023/11/07 09:55:34;;;;;;;1999.90;999.90;;;11.80;99.90;;;;;;5070860;28;20455;-68
2023/11/07 09:58:04;;;;;;;1999.90;999.90;;;11.90;99.90;;;;;;5071099;28;20409;-67
2023/11/07 10:00:32;;;;;;;1999.90;999.90;;;12.00;99.90;;;;;;5070698;28;20897;-69
2023/11/07 10:02:59;;;;;;;1999.90;999.90;;;11.90;99.90;;;;;;5070859;28;20405;-69
2023/11/07 10:05:25;;;;;;;1999.90;999.90;;;11.90;99.90;;;;;;5071105;28;21049;-68
2023/11/07 10:07:51;;;;;;;1999.90;999.90;;;11.90;99.90;;;;;;5071083;28;20413;-68
2023/11/07 10:10:18;;;;;;;1999.90;999.90;;;11.80;99.90;;;;;;5071389;28;20401;-67
2023/11/07 10:12:45;;;;;;;1999.90;999.90;;;11.90;99.90;;;;;;5070791;28;20406;-69
2023/11/07 10:15:23;;;;;;;1999.90;999.90;;;12.00;99.90;;;;;;5070967;28;20409;-67
2023/11/07 10:18:04;;;;;;;1999.90;999.90;;;12.00;99.90;;;;;;5071456;28;20434;-68
2023/11/07 10:20:31;;;;;;;1999.90;999.90;;;12.00;99.90;;;;;;5071073;28;20454;-68
2023/11/07 10:23:00;;;;;;;1999.90;999.90;;;12.00;99.90;;;;;;5053161;28;20497;-68
2023/11/07 10:25:27;;;;;;;1999.90;999.90;;;12.00;99.90;;;;;;5071080;28;20425;-70
2023/11/07 10:27:54;;;;;;;1999.90;999.90;;;12.10;99.90;;;;;;5070829;28;20441;-68
2023/11/07 10:30:20;;;;;;;1999.90;999.90;;;12.20;99.90;;;;;;5071142;28;20413;-68
2023/11/07 10:32:47;;;;;;;1999.90;999.90;;;12.30;99.90;;;;;;5070917;28;20409;-69
2023/11/07 10:35:13;;;;;;;1999.90;999.90;;;12.30;99.90;;;;;;5070844;28;20942;-67
2023/11/07 10:37:39;;;;;;;1999.90;999.90;;;12.40;99.90;;;;;;5070804;28;20429;-70
2023/11/07 10:40:05;;;;;;;1999.90;999.90;;;12.50;99.90;;;;;;5070825;28;20444;-68
2023/11/07 10:42:34;;;;;;;1999.90;999.90;;;12.40;99.90;;;;;;5070736;28;20444;-68
2023/11/07 10:45:05;;;;;;;1999.90;999.90;;;12.60;99.90;;;;;;5070950;28;20409;-67
2023/11/07 10:47:35;;;;;;;1999.90;999.90;;;12.50;99.90;;;;;;5070995;28;20409;-68
2023/11/07 10:50:02;;;;;;;1999.90;999.90;;;12.50;99.90;;;;;;5070766;28;20445;-68
2023/11/07 10:52:28;;;;;;;1999.90;999.90;;;12.60;99.90;;;;;;5070923;28;20405;-68
2023/11/07 10:54:54;;;;;;;1999.90;999.90;;;12.70;99.90;;;;;;5071069;28;20423;-69
2023/11/07 10:57:28;;;;;;;1999.90;999.90;;;12.80;99.90;;;;;;5074129;28;20969;-67
2023/11/07 11:00:10;;;;;;;1999.90;999.90;;;12.90;99.90;;;;;;5074166;28;20185;-67
2023/11/07 11:02:39;;;;;;;1999.90;999.90;;;12.80;99.90;;;;;;5074604;28;20398;-68
2023/11/07 11:05:11;;;;;;;1999.90;999.90;;;12.90;99.90;;;;;;5066659;28;20757;-68
2023/11/07 11:07:39;;;;;;;1999.90;999.90;;;12.90;99.90;;;;;;5074933;28;20414;-67
2023/11/07 11:10:06;;;;;;;1999.90;999.90;;;13.10;99.90;;;;;;5074517;28;20420;-67
2023/11/07 11:12:34;;;;;;;1999.90;999.90;;;13.20;99.90;;;;;;5074235;28;20417;-68
2023/11/07 11:15:01;;;;;;;1999.90;999.90;;;13.80;99.90;;;;;;5074725;28;20402;-67
2023/11/07 11:17:33;;;;;;;1999.90;999.90;;;13.70;98.80;;;;;;5073790;28;20411;-67
2023/11/07 11:20:26;;;;;;;1999.90;999.90;;;14.00;97.10;;;;;;5073430;28;20428;-67
2023/11/07 11:23:22;;;;;;;1999.90;999.90;;;14.30;93.40;;;;;;5074240;28;20456;-68
2023/11/07 11:26:13;;;;;;;1999.90;999.90;;;14.50;92.20;;;;;;5073152;28;20806;-67
2023/11/07 11:28:40;;;;;;;1999.90;999.90;;;14.10;91.90;;;;;;5073885;28;20415;-69
2023/11/07 11:31:12;;;;;;;1999.90;999.90;;;13.70;92.90;;;;;;5073719;28;20492;-69
2023/11/07 11:33:38;;;;;;;1999.90;999.90;;;13.50;94.40;;;;;;5075038;28;20479;-69
2023/11/07 11:36:46;;;;;;;1999.90;999.90;;;13.40;95.20;;;;;;5073659;28;20443;-68
2023/11/07 11:39:27;;;;;;;1999.90;999.90;;;13.40;96.70;;;;;;5074693;28;20418;-70
2023/11/07 11:41:56;;;;;;;1999.90;999.90;;;13.40;97.20;;;;;;5073516;28;20556;-68
2023/11/07 11:44:24;;;;;;;1999.90;999.90;;;13.30;95.60;;;;;;5073649;28;20489;-69
2023/11/07 11:46:51;;;;;;;1999.90;999.90;;;13.10;94.90;;;;;;5067584;28;20429;-70
2023/11/07 11:49:18;;;;;;;1999.90;999.90;;;12.80;96.70;;;;;;5073197;28;20426;-68
2023/11/07 11:51:46;;;;;;;1999.90;999.90;;;12.70;96.60;;;;;;5073825;28;20455;-68
2023/11/07 11:54:13;;;;;;;1999.90;999.90;;;12.70;98.40;;;;;;5072857;28;20491;-69
2023/11/07 11:56:49;;;;;;;1999.90;999.90;;;12.90;99.90;;;;;;5072958;28;20468;-68
2023/11/07 11:59:16;;;;;;;1999.90;999.90;;;13.40;95.30;;;;;;5066158;28;20419;-68
2023/11/07 12:02:00;;;;;;;1999.90;999.90;;;13.30;93.90;;;;;;5072986;28;20452;-68
2023/11/07 12:04:28;;;;;;;1999.90;999.90;;;13.00;97.90;;;;;;5073221;28;20780;-69